sensor_id;sensor_type;location;lat;lon;timestamp;P1;durP1;ratioP1;P2;durP2;ratioP2
54831;SDS011;40730;53.068;6.572;2022-11-20T00:00:28;21.65;;;12.75;;
54831;SDS011;40730;53.068;6.572;2022-11-20T00:02:54;25.05;;;14.25;;
54831;SDS011;40730;53.068;6.572;2022-11-20T00:05:19;22.70;;;14.30;;
54831;SDS011;40730;53.068;6.572;2022-11-20T00:07:46;21.95;;;13.80;;
54831;SDS011;40730;53.068;6.572;2022-11-20T00:10:11;27.50;;;13.77;;
54831;SDS011;40730;53.068;6.572;2022-11-20T00:12:37;22.55;;;12.82;;
54831;SDS011;40730;53.068;6.572;2022-11-20T00:15:03;26.77;;;13.40;;
54831;SDS011;40730;53.068;6.572;2022-11-20T00:17:29;26.67;;;13.32;;
54831;SDS011;40730;53.068;6.572;2022-11-20T00:19:55;25.35;;;13.50;;
54831;SDS011;40730;53.068;6.572;2022-11-20T00:22:20;23.02;;;13.07;;
54831;SDS011;40730;53.068;6.572;2022-11-20T00:24:46;19.33;;;12.40;;
54831;SDS011;40730;53.068;6.572;2022-11-20T00:27:11;22.55;;;11.65;;
54831;SDS011;40730;53.068;6.572;2022-11-20T00:29:37;24.92;;;13.27;;
54831;SDS011;40730;53.068;6.572;2022-11-20T00:32:02;21.23;;;12.32;;
54831;SDS011;40730;53.068;6.572;2022-11-20T00:34:28;24.88;;;13.73;;
54831;SDS011;40730;53.068;6.572;2022-11-20T00:36:54;22.63;;;12.43;;
54831;SDS011;40730;53.068;6.572;2022-11-20T00:39:19;21.23;;;11.88;;
54831;SDS011;40730;53.068;6.572;2022-11-20T00:41:45;24.60;;;13.65;;
54831;SDS011;40730;53.068;6.572;2022-11-20T00:44:10;25.30;;;13.88;;
54831;SDS011;40730;53.068;6.572;2022-11-20T00:46:36;23.90;;;14.50;;
54831;SDS011;40730;53.068;6.572;2022-11-20T00:49:01;23.10;;;12.40;;
54831;SDS011;40730;53.068;6.572;2022-11-20T00:51:27;23.75;;;13.77;;
54831;SDS011;40730;53.068;6.572;2022-11-20T00:53:56;24.60;;;13.13;;
54831;SDS011;40730;53.068;6.572;2022-11-20T00:56:24;22.77;;;11.60;;
54831;SDS011;40730;53.068;6.572;2022-11-20T00:58:50;20.75;;;12.05;;
54831;SDS011;40730;53.068;6.572;2022-11-20T01:01:17;21.90;;;12.98;;
54831;SDS011;40730;53.068;6.572;2022-11-20T01:03:49;25.17;;;13.30;;
54831;SDS011;40730;53.068;6.572;2022-11-20T01:06:23;21.23;;;12.45;;
54831;SDS011;40730;53.068;6.572;2022-11-20T01:08:51;22.83;;;12.73;;
54831;SDS011;40730;53.068;6.572;2022-11-20T01:11:19;21.98;;;13.00;;
54831;SDS011;40730;53.068;6.572;2022-11-20T01:13:47;24.17;;;12.80;;
54831;SDS011;40730;53.068;6.572;2022-11-20T01:16:19;21.42;;;12.90;;
54831;SDS011;40730;53.068;6.572;2022-11-20T01:18:47;19.40;;;11.75;;
54831;SDS011;40730;53.068;6.572;2022-11-20T01:21:19;22.20;;;12.48;;
54831;SDS011;40730;53.068;6.572;2022-11-20T01:23:47;22.55;;;12.63;;
54831;SDS011;40730;53.068;6.572;2022-11-20T01:26:21;20.35;;;11.77;;
54831;SDS011;40730;53.068;6.572;2022-11-20T01:28:48;22.70;;;12.82;;
54831;SDS011;40730;53.068;6.572;2022-11-20T01:31:15;20.08;;;11.75;;
54831;SDS011;40730;53.068;6.572;2022-11-20T01:33:41;21.90;;;13.00;;
54831;SDS011;40730;53.068;6.572;2022-11-20T01:36:08;22.02;;;12.02;;
54831;SDS011;40730;53.068;6.572;2022-11-20T01:38:34;19.58;;;11.65;;
54831;SDS011;40730;53.068;6.572;2022-11-20T01:41:00;19.98;;;12.32;;
54831;SDS011;40730;53.068;6.572;2022-11-20T01:43:26;22.05;;;13.05;;
54831;SDS011;40730;53.068;6.572;2022-11-20T01:51:21;24.38;;;13.30;;
54831;SDS011;40730;53.068;6.572;2022-11-20T01:53:49;22.90;;;13.02;;
54831;SDS011;40730;53.068;6.572;2022-11-20T01:56:17;25.33;;;13.43;;
54831;SDS011;40730;53.068;6.572;2022-11-20T01:58:51;22.80;;;13.25;;
54831;SDS011;40730;53.068;6.572;2022-11-20T02:01:21;19.98;;;12.45;;
54831;SDS011;40730;53.068;6.572;2022-11-20T02:03:47;22.38;;;13.25;;
54831;SDS011;40730;53.068;6.572;2022-11-20T02:06:30;23.05;;;13.68;;
54831;SDS011;40730;53.068;6.572;2022-11-20T02:09:01;24.80;;;13.63;;
54831;SDS011;40730;53.068;6.572;2022-11-20T02:11:26;24.00;;;13.98;;
54831;SDS011;40730;53.068;6.572;2022-11-20T02:13:52;22.33;;;13.88;;
54831;SDS011;40730;53.068;6.572;2022-11-20T02:18:47;25.08;;;13.73;;
54831;SDS011;40730;53.068;6.572;2022-11-20T02:26:44;23.75;;;13.95;;
54831;SDS011;40730;53.068;6.572;2022-11-20T02:29:16;20.23;;;13.50;;
54831;SDS011;40730;53.068;6.572;2022-11-20T02:31:51;22.98;;;14.30;;
54831;SDS011;40730;53.068;6.572;2022-11-20T02:34:19;27.08;;;14.45;;
54831;SDS011;40730;53.068;6.572;2022-11-20T02:36:45;24.33;;;14.13;;
54831;SDS011;40730;53.068;6.572;2022-11-20T02:39:13;23.23;;;13.52;;
54831;SDS011;40730;53.068;6.572;2022-11-20T02:41:41;26.92;;;14.43;;
54831;SDS011;40730;53.068;6.572;2022-11-20T02:44:07;21.65;;;13.23;;
54831;SDS011;40730;53.068;6.572;2022-11-20T02:46:33;23.65;;;15.50;;
54831;SDS011;40730;53.068;6.572;2022-11-20T02:49:00;26.15;;;14.18;;
54831;SDS011;40730;53.068;6.572;2022-11-20T02:51:27;23.95;;;13.38;;
54831;SDS011;40730;53.068;6.572;2022-11-20T02:53:52;21.08;;;13.02;;
54831;SDS011;40730;53.068;6.572;2022-11-20T02:56:18;24.20;;;13.55;;
54831;SDS011;40730;53.068;6.572;2022-11-20T02:58:43;23.60;;;14.07;;
54831;SDS011;40730;53.068;6.572;2022-11-20T03:01:09;20.42;;;11.98;;
54831;SDS011;40730;53.068;6.572;2022-11-20T03:03:34;20.20;;;12.25;;
54831;SDS011;40730;53.068;6.572;2022-11-20T03:06:00;22.80;;;13.15;;
54831;SDS011;40730;53.068;6.572;2022-11-20T03:08:26;23.02;;;12.95;;
54831;SDS011;40730;53.068;6.572;2022-11-20T03:10:51;23.13;;;12.70;;
54831;SDS011;40730;53.068;6.572;2022-11-20T03:13:17;21.67;;;12.93;;
54831;SDS011;40730;53.068;6.572;2022-11-20T03:15:43;24.55;;;13.43;;
54831;SDS011;40730;53.068;6.572;2022-11-20T03:18:09;18.58;;;11.85;;
54831;SDS011;40730;53.068;6.572;2022-11-20T03:20:34;21.60;;;13.23;;
54831;SDS011;40730;53.068;6.572;2022-11-20T03:23:00;20.02;;;11.50;;
54831;SDS011;40730;53.068;6.572;2022-11-20T03:25:26;22.15;;;12.50;;
54831;SDS011;40730;53.068;6.572;2022-11-20T03:27:52;21.63;;;12.38;;
54831;SDS011;40730;53.068;6.572;2022-11-20T03:30:18;18.80;;;12.07;;
54831;SDS011;40730;53.068;6.572;2022-11-20T03:32:44;22.25;;;13.07;;
54831;SDS011;40730;53.068;6.572;2022-11-20T03:35:09;17.42;;;11.70;;
54831;SDS011;40730;53.068;6.572;2022-11-20T03:37:35;20.67;;;12.05;;
54831;SDS011;40730;53.068;6.572;2022-11-20T03:40:00;20.05;;;12.52;;
54831;SDS011;40730;53.068;6.572;2022-11-20T03:42:26;22.73;;;13.07;;
54831;SDS011;40730;53.068;6.572;2022-11-20T03:45:09;21.98;;;13.07;;
54831;SDS011;40730;53.068;6.572;2022-11-20T03:47:35;20.38;;;11.95;;
54831;SDS011;40730;53.068;6.572;2022-11-20T03:50:01;20.05;;;12.35;;
54831;SDS011;40730;53.068;6.572;2022-11-20T03:52:27;18.42;;;11.20;;
54831;SDS011;40730;53.068;6.572;2022-11-20T03:54:53;19.98;;;12.13;;
54831;SDS011;40730;53.068;6.572;2022-11-20T03:57:18;22.00;;;12.20;;
54831;SDS011;40730;53.068;6.572;2022-11-20T03:59:44;18.15;;;11.13;;
54831;SDS011;40730;53.068;6.572;2022-11-20T04:02:09;15.70;;;10.85;;
54831;SDS011;40730;53.068;6.572;2022-11-20T04:04:35;19.63;;;11.73;;
54831;SDS011;40730;53.068;6.572;2022-11-20T04:07:00;21.48;;;12.30;;
54831;SDS011;40730;53.068;6.572;2022-11-20T04:09:26;19.50;;;11.43;;
54831;SDS011;40730;53.068;6.572;2022-11-20T04:11:52;18.10;;;11.40;;
54831;SDS011;40730;53.068;6.572;2022-11-20T04:14:18;18.05;;;11.38;;
54831;SDS011;40730;53.068;6.572;2022-11-20T04:16:43;21.92;;;12.20;;
54831;SDS011;40730;53.068;6.572;2022-11-20T04:19:10;20.02;;;11.65;;
54831;SDS011;40730;53.068;6.572;2022-11-20T04:21:38;20.02;;;12.00;;
54831;SDS011;40730;53.068;6.572;2022-11-20T04:24:04;17.67;;;11.63;;
54831;SDS011;40730;53.068;6.572;2022-11-20T04:26:30;18.80;;;11.23;;
54831;SDS011;40730;53.068;6.572;2022-11-20T04:28:56;18.80;;;12.07;;
54831;SDS011;40730;53.068;6.572;2022-11-20T04:31:25;19.88;;;12.73;;
54831;SDS011;40730;53.068;6.572;2022-11-20T04:33:52;20.67;;;12.90;;
54831;SDS011;40730;53.068;6.572;2022-11-20T04:36:19;18.13;;;11.82;;
54831;SDS011;40730;53.068;6.572;2022-11-20T04:38:55;21.80;;;13.23;;
54831;SDS011;40730;53.068;6.572;2022-11-20T04:41:23;20.58;;;13.70;;
54831;SDS011;40730;53.068;6.572;2022-11-20T04:43:55;17.33;;;11.23;;
54831;SDS011;40730;53.068;6.572;2022-11-20T04:46:24;17.13;;;11.05;;
54831;SDS011;40730;53.068;6.572;2022-11-20T04:48:51;19.58;;;11.52;;
54831;SDS011;40730;53.068;6.572;2022-11-20T04:51:17;17.58;;;11.40;;
54831;SDS011;40730;53.068;6.572;2022-11-20T04:53:42;20.60;;;11.40;;
54831;SDS011;40730;53.068;6.572;2022-11-20T04:56:08;16.80;;;11.48;;
54831;SDS011;40730;53.068;6.572;2022-11-20T04:58:35;19.98;;;12.57;;
54831;SDS011;40730;53.068;6.572;2022-11-20T05:01:02;18.13;;;11.52;;
54831;SDS011;40730;53.068;6.572;2022-11-20T05:03:29;17.17;;;11.13;;
54831;SDS011;40730;53.068;6.572;2022-11-20T05:05:55;16.17;;;10.60;;
54831;SDS011;40730;53.068;6.572;2022-11-20T05:08:21;17.50;;;9.77;;
54831;SDS011;40730;53.068;6.572;2022-11-20T05:10:46;15.52;;;10.63;;
54831;SDS011;40730;53.068;6.572;2022-11-20T05:13:12;18.02;;;11.43;;
54831;SDS011;40730;53.068;6.572;2022-11-20T05:15:37;16.48;;;11.55;;
54831;SDS011;40730;53.068;6.572;2022-11-20T05:18:03;16.58;;;10.50;;
54831;SDS011;40730;53.068;6.572;2022-11-20T05:20:29;16.27;;;10.05;;
54831;SDS011;40730;53.068;6.572;2022-11-20T05:22:57;17.95;;;11.25;;
54831;SDS011;40730;53.068;6.572;2022-11-20T05:25:23;18.13;;;11.15;;
54831;SDS011;40730;53.068;6.572;2022-11-20T05:27:49;18.27;;;11.23;;
54831;SDS011;40730;53.068;6.572;2022-11-20T05:30:14;18.48;;;11.40;;
54831;SDS011;40730;53.068;6.572;2022-11-20T05:32:40;15.93;;;9.88;;
54831;SDS011;40730;53.068;6.572;2022-11-20T05:35:05;15.27;;;10.45;;
54831;SDS011;40730;53.068;6.572;2022-11-20T05:37:31;15.57;;;10.45;;
54831;SDS011;40730;53.068;6.572;2022-11-20T05:39:57;15.57;;;10.18;;
54831;SDS011;40730;53.068;6.572;2022-11-20T05:42:23;16.25;;;9.57;;
54831;SDS011;40730;53.068;6.572;2022-11-20T05:44:58;15.63;;;9.55;;
54831;SDS011;40730;53.068;6.572;2022-11-20T05:47:25;15.32;;;9.93;;
54831;SDS011;40730;53.068;6.572;2022-11-20T05:49:51;15.15;;;9.13;;
54831;SDS011;40730;53.068;6.572;2022-11-20T05:52:16;14.48;;;9.85;;
54831;SDS011;40730;53.068;6.572;2022-11-20T05:54:42;15.70;;;9.65;;
54831;SDS011;40730;53.068;6.572;2022-11-20T05:57:08;14.82;;;9.27;;
54831;SDS011;40730;53.068;6.572;2022-11-20T05:59:33;14.70;;;9.10;;
54831;SDS011;40730;53.068;6.572;2022-11-20T06:01:59;15.82;;;9.48;;
54831;SDS011;40730;53.068;6.572;2022-11-20T06:04:24;16.00;;;9.60;;
54831;SDS011;40730;53.068;6.572;2022-11-20T06:06:50;13.88;;;8.70;;
54831;SDS011;40730;53.068;6.572;2022-11-20T06:09:16;14.35;;;9.27;;
54831;SDS011;40730;53.068;6.572;2022-11-20T06:11:41;14.40;;;9.55;;
54831;SDS011;40730;53.068;6.572;2022-11-20T06:14:07;14.63;;;8.77;;
54831;SDS011;40730;53.068;6.572;2022-11-20T06:16:32;12.63;;;8.93;;
54831;SDS011;40730;53.068;6.572;2022-11-20T06:18:58;13.48;;;8.95;;
54831;SDS011;40730;53.068;6.572;2022-11-20T06:21:23;14.07;;;9.38;;
54831;SDS011;40730;53.068;6.572;2022-11-20T06:23:50;14.40;;;9.07;;
54831;SDS011;40730;53.068;6.572;2022-11-20T06:26:18;14.77;;;9.98;;
54831;SDS011;40730;53.068;6.572;2022-11-20T06:28:45;15.95;;;9.40;;
54831;SDS011;40730;53.068;6.572;2022-11-20T06:31:12;14.27;;;8.88;;
54831;SDS011;40730;53.068;6.572;2022-11-20T06:33:39;14.88;;;8.52;;
54831;SDS011;40730;53.068;6.572;2022-11-20T06:36:05;14.02;;;9.20;;
54831;SDS011;40730;53.068;6.572;2022-11-20T06:38:31;16.40;;;8.93;;
54831;SDS011;40730;53.068;6.572;2022-11-20T06:40:57;15.32;;;9.18;;
54831;SDS011;40730;53.068;6.572;2022-11-20T06:43:23;12.85;;;9.10;;
54831;SDS011;40730;53.068;6.572;2022-11-20T06:45:52;23.40;;;9.27;;
54831;SDS011;40730;53.068;6.572;2022-11-20T06:48:18;18.13;;;10.00;;
54831;SDS011;40730;53.068;6.572;2022-11-20T06:50:44;13.90;;;8.43;;
54831;SDS011;40730;53.068;6.572;2022-11-20T06:53:10;12.77;;;8.80;;
54831;SDS011;40730;53.068;6.572;2022-11-20T06:55:35;12.50;;;8.30;;
54831;SDS011;40730;53.068;6.572;2022-11-20T06:58:01;13.48;;;8.70;;
54831;SDS011;40730;53.068;6.572;2022-11-20T07:00:26;13.38;;;8.35;;
54831;SDS011;40730;53.068;6.572;2022-11-20T07:02:52;13.00;;;8.60;;
54831;SDS011;40730;53.068;6.572;2022-11-20T07:05:17;14.65;;;9.13;;
54831;SDS011;40730;53.068;6.572;2022-11-20T07:07:43;12.85;;;8.48;;
54831;SDS011;40730;53.068;6.572;2022-11-20T07:10:09;15.07;;;9.02;;
54831;SDS011;40730;53.068;6.572;2022-11-20T07:12:35;12.52;;;8.07;;
54831;SDS011;40730;53.068;6.572;2022-11-20T07:15:00;14.48;;;9.13;;
54831;SDS011;40730;53.068;6.572;2022-11-20T07:17:26;14.32;;;9.02;;
54831;SDS011;40730;53.068;6.572;2022-11-20T07:19:52;14.45;;;8.93;;
54831;SDS011;40730;53.068;6.572;2022-11-20T07:22:17;12.80;;;8.63;;
54831;SDS011;40730;53.068;6.572;2022-11-20T07:24:43;12.50;;;7.57;;
54831;SDS011;40730;53.068;6.572;2022-11-20T07:27:08;13.90;;;8.98;;
54831;SDS011;40730;53.068;6.572;2022-11-20T07:29:34;11.68;;;8.00;;
54831;SDS011;40730;53.068;6.572;2022-11-20T07:31:59;12.73;;;8.10;;
54831;SDS011;40730;53.068;6.572;2022-11-20T07:34:25;11.98;;;7.95;;
54831;SDS011;40730;53.068;6.572;2022-11-20T07:36:51;13.13;;;8.20;;
54831;SDS011;40730;53.068;6.572;2022-11-20T07:39:16;13.45;;;8.00;;
54831;SDS011;40730;53.068;6.572;2022-11-20T07:41:42;11.73;;;7.90;;
54831;SDS011;40730;53.068;6.572;2022-11-20T07:44:07;12.25;;;8.05;;
54831;SDS011;40730;53.068;6.572;2022-11-20T07:46:33;12.52;;;7.80;;
54831;SDS011;40730;53.068;6.572;2022-11-20T07:48:58;14.32;;;8.90;;
54831;SDS011;40730;53.068;6.572;2022-11-20T07:51:24;13.70;;;7.68;;
54831;SDS011;40730;53.068;6.572;2022-11-20T07:53:51;11.07;;;7.65;;
54831;SDS011;40730;53.068;6.572;2022-11-20T07:56:17;12.25;;;7.90;;
54831;SDS011;40730;53.068;6.572;2022-11-20T07:58:42;13.30;;;8.05;;
54831;SDS011;40730;53.068;6.572;2022-11-20T08:01:08;11.55;;;7.55;;
54831;SDS011;40730;53.068;6.572;2022-11-20T08:03:34;12.73;;;7.50;;
54831;SDS011;40730;53.068;6.572;2022-11-20T08:06:02;12.30;;;7.40;;
54831;SDS011;40730;53.068;6.572;2022-11-20T08:08:28;12.43;;;8.25;;
54831;SDS011;40730;53.068;6.572;2022-11-20T08:10:56;12.70;;;8.48;;
54831;SDS011;40730;53.068;6.572;2022-11-20T08:13:42;12.98;;;8.20;;
54831;SDS011;40730;53.068;6.572;2022-11-20T08:16:27;10.70;;;7.40;;
54831;SDS011;40730;53.068;6.572;2022-11-20T08:18:53;12.48;;;7.32;;
54831;SDS011;40730;53.068;6.572;2022-11-20T08:21:18;11.27;;;7.07;;
54831;SDS011;40730;53.068;6.572;2022-11-20T08:23:44;12.88;;;7.90;;
54831;SDS011;40730;53.068;6.572;2022-11-20T08:26:09;11.38;;;7.20;;
54831;SDS011;40730;53.068;6.572;2022-11-20T08:28:35;10.85;;;7.30;;
54831;SDS011;40730;53.068;6.572;2022-11-20T08:31:01;11.68;;;7.45;;
54831;SDS011;40730;53.068;6.572;2022-11-20T08:33:27;10.18;;;6.43;;
54831;SDS011;40730;53.068;6.572;2022-11-20T08:35:53;12.27;;;7.43;;
54831;SDS011;40730;53.068;6.572;2022-11-20T08:38:27;10.15;;;7.38;;
54831;SDS011;40730;53.068;6.572;2022-11-20T08:40:57;11.13;;;7.28;;
54831;SDS011;40730;53.068;6.572;2022-11-20T08:43:43;10.48;;;6.95;;
54831;SDS011;40730;53.068;6.572;2022-11-20T08:46:09;12.73;;;7.97;;
54831;SDS011;40730;53.068;6.572;2022-11-20T08:48:34;10.02;;;6.88;;
54831;SDS011;40730;53.068;6.572;2022-11-20T08:51:00;9.82;;;6.72;;
54831;SDS011;40730;53.068;6.572;2022-11-20T08:53:26;11.55;;;7.18;;
54831;SDS011;40730;53.068;6.572;2022-11-20T08:55:52;11.70;;;8.15;;
54831;SDS011;40730;53.068;6.572;2022-11-20T08:58:17;11.60;;;7.10;;
54831;SDS011;40730;53.068;6.572;2022-11-20T09:00:43;10.75;;;6.88;;
54831;SDS011;40730;53.068;6.572;2022-11-20T09:03:08;14.07;;;8.05;;
54831;SDS011;40730;53.068;6.572;2022-11-20T09:05:34;9.77;;;6.65;;
54831;SDS011;40730;53.068;6.572;2022-11-20T09:08:01;11.18;;;7.18;;
54831;SDS011;40730;53.068;6.572;2022-11-20T09:10:27;13.55;;;7.65;;
54831;SDS011;40730;53.068;6.572;2022-11-20T09:12:53;12.38;;;7.20;;
54831;SDS011;40730;53.068;6.572;2022-11-20T09:15:20;12.60;;;8.05;;
54831;SDS011;40730;53.068;6.572;2022-11-20T09:17:59;10.90;;;7.30;;
54831;SDS011;40730;53.068;6.572;2022-11-20T09:20:27;12.48;;;7.28;;
54831;SDS011;40730;53.068;6.572;2022-11-20T09:22:54;11.48;;;7.63;;
54831;SDS011;40730;53.068;6.572;2022-11-20T09:25:20;9.98;;;7.05;;
54831;SDS011;40730;53.068;6.572;2022-11-20T09:27:46;10.93;;;7.22;;
54831;SDS011;40730;53.068;6.572;2022-11-20T09:30:13;11.38;;;7.00;;
54831;SDS011;40730;53.068;6.572;2022-11-20T09:32:39;9.55;;;7.35;;
54831;SDS011;40730;53.068;6.572;2022-11-20T09:35:05;10.98;;;7.07;;
54831;SDS011;40730;53.068;6.572;2022-11-20T09:37:31;9.73;;;6.43;;
54831;SDS011;40730;53.068;6.572;2022-11-20T09:39:56;11.38;;;6.13;;
54831;SDS011;40730;53.068;6.572;2022-11-20T09:50:54;9.32;;;6.45;;
54831;SDS011;40730;53.068;6.572;2022-11-20T09:53:28;9.20;;;6.53;;
54831;SDS011;40730;53.068;6.572;2022-11-20T09:56:19;10.45;;;6.82;;
54831;SDS011;40730;53.068;6.572;2022-11-20T09:58:47;9.25;;;6.15;;
54831;SDS011;40730;53.068;6.572;2022-11-20T10:01:16;10.93;;;7.00;;
54831;SDS011;40730;53.068;6.572;2022-11-20T10:06:43;7.90;;;5.90;;
54831;SDS011;40730;53.068;6.572;2022-11-20T10:09:29;9.23;;;6.75;;
54831;SDS011;40730;53.068;6.572;2022-11-20T10:17:21;9.38;;;6.60;;
54831;SDS011;40730;53.068;6.572;2022-11-20T10:22:44;8.93;;;5.93;;
54831;SDS011;40730;53.068;6.572;2022-11-20T10:25:19;8.30;;;5.80;;
54831;SDS011;40730;53.068;6.572;2022-11-20T10:30:25;8.98;;;6.22;;
54831;SDS011;40730;53.068;6.572;2022-11-20T10:32:52;9.35;;;6.68;;
54831;SDS011;40730;53.068;6.572;2022-11-20T10:35:22;8.85;;;5.80;;
54831;SDS011;40730;53.068;6.572;2022-11-20T10:38:00;9.88;;;6.65;;
54831;SDS011;40730;53.068;6.572;2022-11-20T10:45:48;7.03;;;4.68;;
54831;SDS011;40730;53.068;6.572;2022-11-20T10:48:22;9.13;;;5.75;;
54831;SDS011;40730;53.068;6.572;2022-11-20T10:51:03;7.97;;;5.60;;
54831;SDS011;40730;53.068;6.572;2022-11-20T10:56:56;8.80;;;6.32;;
54831;SDS011;40730;53.068;6.572;2022-11-20T11:02:14;7.53;;;5.50;;
54831;SDS011;40730;53.068;6.572;2022-11-20T11:05:04;15.60;;;10.20;;
54831;SDS011;40730;53.068;6.572;2022-11-20T11:07:52;8.60;;;6.05;;
54831;SDS011;40730;53.068;6.572;2022-11-20T11:10:36;9.18;;;6.55;;
54831;SDS011;40730;53.068;6.572;2022-11-20T11:13:23;8.30;;;5.68;;
54831;SDS011;40730;53.068;6.572;2022-11-20T11:15:50;7.60;;;5.85;;
54831;SDS011;40730;53.068;6.572;2022-11-20T11:20:53;7.65;;;4.95;;
54831;SDS011;40730;53.068;6.572;2022-11-20T11:26:06;9.52;;;5.18;;
54831;SDS011;40730;53.068;6.572;2022-11-20T11:28:57;7.22;;;5.10;;
54831;SDS011;40730;53.068;6.572;2022-11-20T11:31:28;6.72;;;4.97;;
54831;SDS011;40730;53.068;6.572;2022-11-20T11:34:10;6.72;;;5.40;;
54831;SDS011;40730;53.068;6.572;2022-11-20T11:36:40;9.73;;;5.88;;
54831;SDS011;40730;53.068;6.572;2022-11-20T11:39:14;7.28;;;4.90;;
54831;SDS011;40730;53.068;6.572;2022-11-20T11:41:42;7.57;;;4.60;;
54831;SDS011;40730;53.068;6.572;2022-11-20T11:44:21;7.22;;;4.95;;
54831;SDS011;40730;53.068;6.572;2022-11-20T11:47:11;6.10;;;4.97;;
54831;SDS011;40730;53.068;6.572;2022-11-20T11:50:17;7.20;;;5.45;;
54831;SDS011;40730;53.068;6.572;2022-11-20T11:55:52;6.38;;;4.57;;
54831;SDS011;40730;53.068;6.572;2022-11-20T12:09:56;5.55;;;4.53;;
54831;SDS011;40730;53.068;6.572;2022-11-20T12:12:25;7.47;;;5.00;;
54831;SDS011;40730;53.068;6.572;2022-11-20T12:14:54;5.70;;;4.70;;
54831;SDS011;40730;53.068;6.572;2022-11-20T12:17:22;5.97;;;4.55;;
54831;SDS011;40730;53.068;6.572;2022-11-20T12:19:47;8.70;;;5.15;;
54831;SDS011;40730;53.068;6.572;2022-11-20T12:27:36;7.03;;;5.70;;
54831;SDS011;40730;53.068;6.572;2022-11-20T12:30:14;10.07;;;6.50;;
54831;SDS011;40730;53.068;6.572;2022-11-20T12:50:25;5.32;;;3.75;;
54831;SDS011;40730;53.068;6.572;2022-11-20T12:53:05;6.35;;;3.97;;
54831;SDS011;40730;53.068;6.572;2022-11-20T12:58:27;7.10;;;4.68;;
54831;SDS011;40730;53.068;6.572;2022-11-20T13:01:06;5.70;;;4.40;;
54831;SDS011;40730;53.068;6.572;2022-11-20T13:07:01;6.72;;;4.82;;
54831;SDS011;40730;53.068;6.572;2022-11-20T13:09:29;7.38;;;5.03;;
54831;SDS011;40730;53.068;6.572;2022-11-20T13:12:03;7.15;;;4.82;;
54831;SDS011;40730;53.068;6.572;2022-11-20T13:17:36;7.35;;;5.60;;
54831;SDS011;40730;53.068;6.572;2022-11-20T13:20:13;9.40;;;5.65;;
54831;SDS011;40730;53.068;6.572;2022-11-20T13:22:42;7.28;;;5.28;;
54831;SDS011;40730;53.068;6.572;2022-11-20T13:25:09;6.60;;;4.80;;
54831;SDS011;40730;53.068;6.572;2022-11-20T13:27:35;8.55;;;5.68;;
54831;SDS011;40730;53.068;6.572;2022-11-20T13:35:24;12.95;;;8.35;;
54831;SDS011;40730;53.068;6.572;2022-11-20T13:40:33;6.53;;;5.15;;
54831;SDS011;40730;53.068;6.572;2022-11-20T13:45:34;6.93;;;4.55;;
54831;SDS011;40730;53.068;6.572;2022-11-20T13:48:02;8.85;;;5.10;;
54831;SDS011;40730;53.068;6.572;2022-11-20T13:56:53;7.05;;;4.97;;
54831;SDS011;40730;53.068;6.572;2022-11-20T14:02:22;6.82;;;4.95;;
54831;SDS011;40730;53.068;6.572;2022-11-20T14:04:54;6.97;;;4.15;;
54831;SDS011;40730;53.068;6.572;2022-11-20T14:07:24;5.53;;;2.92;;
54831;SDS011;40730;53.068;6.572;2022-11-20T14:09:56;4.40;;;3.47;;
54831;SDS011;40730;53.068;6.572;2022-11-20T14:12:26;3.67;;;2.95;;
54831;SDS011;40730;53.068;6.572;2022-11-20T14:14:54;4.75;;;3.08;;
54831;SDS011;40730;53.068;6.572;2022-11-20T14:17:22;4.60;;;3.15;;
54831;SDS011;40730;53.068;6.572;2022-11-20T14:19:49;4.93;;;3.88;;
54831;SDS011;40730;53.068;6.572;2022-11-20T14:22:18;9.65;;;3.63;;
54831;SDS011;40730;53.068;6.572;2022-11-20T14:27:43;6.53;;;3.85;;
54831;SDS011;40730;53.068;6.572;2022-11-20T14:30:36;4.72;;;3.20;;
54831;SDS011;40730;53.068;6.572;2022-11-20T14:33:10;5.25;;;3.00;;
54831;SDS011;40730;53.068;6.572;2022-11-20T14:35:40;7.53;;;3.25;;
54831;SDS011;40730;53.068;6.572;2022-11-20T14:38:11;4.93;;;3.88;;
54831;SDS011;40730;53.068;6.572;2022-11-20T14:40:54;5.53;;;3.95;;
54831;SDS011;40730;53.068;6.572;2022-11-20T14:43:30;4.72;;;3.72;;
54831;SDS011;40730;53.068;6.572;2022-11-20T14:46:02;5.53;;;4.45;;
54831;SDS011;40730;53.068;6.572;2022-11-20T14:48:31;6.57;;;4.38;;
54831;SDS011;40730;53.068;6.572;2022-11-20T14:51:01;5.18;;;4.00;;
54831;SDS011;40730;53.068;6.572;2022-11-20T14:53:26;6.25;;;4.50;;
54831;SDS011;40730;53.068;6.572;2022-11-20T14:55:59;6.00;;;4.38;;
54831;SDS011;40730;53.068;6.572;2022-11-20T14:58:29;5.68;;;4.38;;
54831;SDS011;40730;53.068;6.572;2022-11-20T15:03:36;6.80;;;4.35;;
54831;SDS011;40730;53.068;6.572;2022-11-20T15:06:06;7.32;;;4.90;;
54831;SDS011;40730;53.068;6.572;2022-11-20T15:08:35;6.05;;;4.53;;
54831;SDS011;40730;53.068;6.572;2022-11-20T15:11:01;6.40;;;4.85;;
54831;SDS011;40730;53.068;6.572;2022-11-20T15:13:34;7.95;;;4.82;;
54831;SDS011;40730;53.068;6.572;2022-11-20T15:16:03;8.00;;;5.65;;
54831;SDS011;40730;53.068;6.572;2022-11-20T15:18:38;17.33;;;8.55;;
54831;SDS011;40730;53.068;6.572;2022-11-20T15:21:16;14.18;;;8.10;;
54831;SDS011;40730;53.068;6.572;2022-11-20T15:23:44;8.38;;;5.25;;
54831;SDS011;40730;53.068;6.572;2022-11-20T15:26:10;11.45;;;6.35;;
54831;SDS011;40730;53.068;6.572;2022-11-20T15:28:41;9.15;;;6.15;;
54831;SDS011;40730;53.068;6.572;2022-11-20T15:31:12;9.32;;;6.15;;
54831;SDS011;40730;53.068;6.572;2022-11-20T15:33:39;10.30;;;6.93;;
54831;SDS011;40730;53.068;6.572;2022-11-20T15:36:05;8.23;;;5.72;;
54831;SDS011;40730;53.068;6.572;2022-11-20T15:38:30;9.57;;;6.35;;
54831;SDS011;40730;53.068;6.572;2022-11-20T15:40:56;10.32;;;7.05;;
54831;SDS011;40730;53.068;6.572;2022-11-20T15:43:22;9.93;;;6.45;;
54831;SDS011;40730;53.068;6.572;2022-11-20T15:45:49;10.18;;;6.88;;
54831;SDS011;40730;53.068;6.572;2022-11-20T15:48:18;9.82;;;7.05;;
54831;SDS011;40730;53.068;6.572;2022-11-20T15:50:59;11.13;;;7.45;;
54831;SDS011;40730;53.068;6.572;2022-11-20T15:53:31;10.80;;;7.47;;
54831;SDS011;40730;53.068;6.572;2022-11-20T15:55:57;11.65;;;7.47;;
54831;SDS011;40730;53.068;6.572;2022-11-20T15:58:23;10.35;;;7.60;;
54831;SDS011;40730;53.068;6.572;2022-11-20T16:00:49;11.82;;;8.52;;
54831;SDS011;40730;53.068;6.572;2022-11-20T16:03:15;10.98;;;7.53;;
54831;SDS011;40730;53.068;6.572;2022-11-20T16:05:41;11.90;;;8.38;;
54831;SDS011;40730;53.068;6.572;2022-11-20T16:08:07;13.35;;;8.48;;
54831;SDS011;40730;53.068;6.572;2022-11-20T16:10:33;10.45;;;7.70;;
54831;SDS011;40730;53.068;6.572;2022-11-20T16:12:59;21.85;;;12.27;;
54831;SDS011;40730;53.068;6.572;2022-11-20T16:15:46;25.15;;;13.18;;
54831;SDS011;40730;53.068;6.572;2022-11-20T16:18:18;32.05;;;15.60;;
54831;SDS011;40730;53.068;6.572;2022-11-20T16:20:45;20.52;;;12.57;;
54831;SDS011;40730;53.068;6.572;2022-11-20T16:23:13;15.07;;;10.00;;
54831;SDS011;40730;53.068;6.572;2022-11-20T16:25:40;24.77;;;15.05;;
54831;SDS011;40730;53.068;6.572;2022-11-20T16:28:06;29.60;;;18.85;;
54831;SDS011;40730;53.068;6.572;2022-11-20T16:30:32;15.15;;;9.88;;
54831;SDS011;40730;53.068;6.572;2022-11-20T16:32:59;14.90;;;9.98;;
54831;SDS011;40730;53.068;6.572;2022-11-20T16:35:25;14.90;;;10.23;;
54831;SDS011;40730;53.068;6.572;2022-11-20T16:37:52;13.02;;;9.15;;
54831;SDS011;40730;53.068;6.572;2022-11-20T16:40:19;13.90;;;9.13;;
54831;SDS011;40730;53.068;6.572;2022-11-20T16:42:44;14.38;;;9.63;;
54831;SDS011;40730;53.068;6.572;2022-11-20T16:45:10;17.45;;;9.43;;